sensor_id;sensor_type;location;lat;lon;timestamp;pressure;altitude;pressure_sealevel;temperature;humidity
17309;BME280;8772;42.804;23.426;2023-06-04T00:01:13;73138.91;;;-140.58;100.00
17309;BME280;8772;42.804;23.426;2023-06-04T00:03:40;73143.00;;;-140.58;100.00
17309;BME280;8772;42.804;23.426;2023-06-04T00:06:07;73149.16;;;-140.58;100.00
17309;BME280;8772;42.804;23.426;2023-06-04T00:08:34;73153.25;;;-140.58;100.00
17309;BME280;8772;42.804;23.426;2023-06-04T00:11:01;73149.16;;;-140.58;100.00
17309;BME280;8772;42.804;23.426;2023-06-04T00:13:28;73153.25;;;-140.58;100.00
17309;BME280;8772;42.804;23.426;2023-06-04T00:15:55;73157.34;;;-140.58;100.00
17309;BME280;8772;42.804;23.426;2023-06-04T00:18:23;73145.06;;;-140.58;100.00
17309;BME280;8772;42.804;23.426;2023-06-04T00:20:51;73145.06;;;-140.58;100.00
17309;BME280;8772;42.804;23.426;2023-06-04T00:23:18;73140.94;;;-140.58;100.00
17309;BME280;8772;42.804;23.426;2023-06-04T00:25:45;73147.09;;;-140.58;100.00
17309;BME280;8772;42.804;23.426;2023-06-04T00:28:12;73149.16;;;-140.58;100.00
17309;BME280;8772;42.804;23.426;2023-06-04T00:30:39;73151.22;;;-140.58;100.00
17309;BME280;8772;42.804;23.426;2023-06-04T00:33:06;73145.06;;;-140.58;100.00
17309;BME280;8772;42.804;23.426;2023-06-04T00:35:34;73140.94;;;-140.58;100.00
17309;BME280;8772;42.804;23.426;2023-06-04T00:38:01;73140.94;;;-140.58;100.00
17309;BME280;8772;42.804;23.426;2023-06-04T00:40:28;73132.75;;;-140.58;100.00
17309;BME280;8772;42.804;23.426;2023-06-04T00:42:55;73128.66;;;-140.58;100.00
17309;BME280;8772;42.804;23.426;2023-06-04T00:45:22;73136.84;;;-140.58;100.00
17309;BME280;8772;42.804;23.426;2023-06-04T00:47:51;73136.84;;;-140.58;100.00
17309;BME280;8772;42.804;23.426;2023-06-04T00:50:18;73126.59;;;-140.58;100.00
17309;BME280;8772;42.804;23.426;2023-06-04T00:52:48;73138.91;;;-140.58;100.00
17309;BME280;8772;42.804;23.426;2023-06-04T00:55:16;73140.94;;;-140.58;100.00
17309;BME280;8772;42.804;23.426;2023-06-04T00:57:44;73128.66;;;-140.58;100.00
17309;BME280;8772;42.804;23.426;2023-06-04T01:00:11;73136.84;;;-140.58;100.00
17309;BME280;8772;42.804;23.426;2023-06-04T01:02:40;73136.84;;;-140.58;100.00
17309;BME280;8772;42.804;23.426;2023-06-04T01:05:40;73128.66;;;-140.58;100.00
17309;BME280;8772;42.804;23.426;2023-06-04T01:08:10;73120.44;;;-140.58;100.00
17309;BME280;8772;42.804;23.426;2023-06-04T01:10:37;73124.53;;;-140.58;100.00
17309;BME280;8772;42.804;23.426;2023-06-04T01:13:04;73124.53;;;-140.58;100.00
17309;BME280;8772;42.804;23.426;2023-06-04T01:15:31;73130.69;;;-140.58;100.00
17309;BME280;8772;42.804;23.426;2023-06-04T01:17:59;73136.84;;;-140.58;100.00
17309;BME280;8772;42.804;23.426;2023-06-04T01:20:33;73145.06;;;-140.58;100.00
17309;BME280;8772;42.804;23.426;2023-06-04T01:23:25;73140.94;;;-140.58;100.00
17309;BME280;8772;42.804;23.426;2023-06-04T01:25:59;73145.06;;;-140.58;100.00
17309;BME280;8772;42.804;23.426;2023-06-04T01:28:28;73143.00;;;-140.58;100.00
17309;BME280;8772;42.804;23.426;2023-06-04T01:30:56;73140.94;;;-140.58;100.00
17309;BME280;8772;42.804;23.426;2023-06-04T01:33:25;73145.06;;;-140.58;100.00
17309;BME280;8772;42.804;23.426;2023-06-04T01:35:52;73140.94;;;-140.58;100.00
17309;BME280;8772;42.804;23.426;2023-06-04T01:38:19;73136.84;;;-140.58;100.00
17309;BME280;8772;42.804;23.426;2023-06-04T01:40:47;73136.84;;;-140.58;100.00
17309;BME280;8772;42.804;23.426;2023-06-04T01:43:16;73134.78;;;-140.58;100.00
17309;BME280;8772;42.804;23.426;2023-06-04T01:45:43;73132.75;;;-140.58;100.00
17309;BME280;8772;42.804;23.426;2023-06-04T01:48:10;73132.75;;;-140.58;100.00
17309;BME280;8772;42.804;23.426;2023-06-04T01:50:36;73130.69;;;-140.58;100.00
17309;BME280;8772;42.804;23.426;2023-06-04T01:53:03;73136.84;;;-140.58;100.00
17309;BME280;8772;42.804;23.426;2023-06-04T01:55:30;73136.84;;;-140.58;100.00
17309;BME280;8772;42.804;23.426;2023-06-04T01:58:00;73136.84;;;-140.58;100.00
17309;BME280;8772;42.804;23.426;2023-06-04T02:00:27;73136.84;;;-140.58;100.00
17309;BME280;8772;42.804;23.426;2023-06-04T02:02:53;73136.84;;;-140.58;100.00
17309;BME280;8772;42.804;23.426;2023-06-04T02:05:21;73140.94;;;-140.58;100.00
17309;BME280;8772;42.804;23.426;2023-06-04T02:07:49;73140.94;;;-140.58;100.00
17309;BME280;8772;42.804;23.426;2023-06-04T02:10:18;73145.06;;;-140.58;100.00
17309;BME280;8772;42.804;23.426;2023-06-04T02:12:56;73143.00;;;-140.58;100.00
17309;BME280;8772;42.804;23.426;2023-06-04T02:15:26;73140.94;;;-140.58;100.00
17309;BME280;8772;42.804;23.426;2023-06-04T02:17:56;73147.09;;;-140.58;100.00
17309;BME280;8772;42.804;23.426;2023-06-04T02:20:24;73149.16;;;-140.58;100.00
17309;BME280;8772;42.804;23.426;2023-06-04T02:22:51;73147.09;;;-140.58;100.00
17309;BME280;8772;42.804;23.426;2023-06-04T02:25:18;73155.31;;;-140.58;100.00
17309;BME280;8772;42.804;23.426;2023-06-04T02:27:45;73153.25;;;-140.58;100.00
17309;BME280;8772;42.804;23.426;2023-06-04T02:30:13;73151.22;;;-140.58;100.00
17309;BME280;8772;42.804;23.426;2023-06-04T02:32:42;73159.41;;;-140.58;100.00
17309;BME280;8772;42.804;23.426;2023-06-04T02:35:10;73159.41;;;-140.58;100.00
17309;BME280;8772;42.804;23.426;2023-06-04T02:37:36;73173.78;;;-140.58;100.00
17309;BME280;8772;42.804;23.426;2023-06-04T02:40:04;73169.66;;;-140.58;100.00
17309;BME280;8772;42.804;23.426;2023-06-04T02:42:32;73173.78;;;-140.58;100.00
17309;BME280;8772;42.804;23.426;2023-06-04T02:44:58;73186.06;;;-140.58;100.00
17309;BME280;8772;42.804;23.426;2023-06-04T02:47:26;73179.91;;;-140.58;100.00
17309;BME280;8772;42.804;23.426;2023-06-04T02:49:55;73181.97;;;-140.58;100.00
17309;BME280;8772;42.804;23.426;2023-06-04T02:52:22;73216.84;;;-140.58;100.00
17309;BME280;8772;42.804;23.426;2023-06-04T02:54:50;73216.84;;;-140.58;100.00
17309;BME280;8772;42.804;23.426;2023-06-04T02:57:17;73220.94;;;-140.58;100.00
17309;BME280;8772;42.804;23.426;2023-06-04T02:59:44;73239.41;;;-140.58;100.00
17309;BME280;8772;42.804;23.426;2023-06-04T03:02:11;73233.25;;;-140.58;100.00
17309;BME280;8772;42.804;23.426;2023-06-04T03:04:40;73259.91;;;-140.58;100.00
17309;BME280;8772;42.804;23.426;2023-06-04T03:07:09;73259.91;;;-140.58;100.00
17309;BME280;8772;42.804;23.426;2023-06-04T03:09:36;73255.81;;;-140.58;100.00
17309;BME280;8772;42.804;23.426;2023-06-04T03:12:04;73266.06;;;-140.58;100.00
17309;BME280;8772;42.804;23.426;2023-06-04T03:14:32;73282.47;;;-140.58;100.00
17309;BME280;8772;42.804;23.426;2023-06-04T03:16:59;73261.97;;;-140.58;100.00
17309;BME280;8772;42.804;23.426;2023-06-04T03:19:34;73268.13;;;-140.58;100.00
17309;BME280;8772;42.804;23.426;2023-06-04T03:22:01;73278.38;;;-140.58;100.00
17309;BME280;8772;42.804;23.426;2023-06-04T03:24:33;73274.28;;;-140.58;100.00
17309;BME280;8772;42.804;23.426;2023-06-04T03:27:02;73272.22;;;-140.58;100.00
17309;BME280;8772;42.804;23.426;2023-06-04T03:29:29;73280.44;;;-140.58;100.00
17309;BME280;8772;42.804;23.426;2023-06-04T03:31:57;73292.72;;;-140.58;100.00
17309;BME280;8772;42.804;23.426;2023-06-04T03:34:24;73274.28;;;-140.58;100.00
17309;BME280;8772;42.804;23.426;2023-06-04T03:36:51;73296.84;;;-140.58;100.00
17309;BME280;8772;42.804;23.426;2023-06-04T03:39:18;73286.56;;;-140.58;100.00
17309;BME280;8772;42.804;23.426;2023-06-04T03:41:46;73280.44;;;-140.58;100.00
17309;BME280;8772;42.804;23.426;2023-06-04T03:44:13;73276.31;;;-140.58;100.00
17309;BME280;8772;42.804;23.426;2023-06-04T03:46:40;73280.44;;;-140.58;100.00
17309;BME280;8772;42.804;23.426;2023-06-04T03:49:08;73288.63;;;-140.58;100.00
17309;BME280;8772;42.804;23.426;2023-06-04T03:51:35;73280.44;;;-140.58;100.00
17309;BME280;8772;42.804;23.426;2023-06-04T03:54:02;73280.44;;;-140.58;100.00
17309;BME280;8772;42.804;23.426;2023-06-04T03:56:29;73274.28;;;-140.58;100.00
17309;BME280;8772;42.804;23.426;2023-06-04T03:58:57;73280.44;;;-140.58;100.00
17309;BME280;8772;42.804;23.426;2023-06-04T04:01:25;73284.53;;;-140.58;100.00
17309;BME280;8772;42.804;23.426;2023-06-04T04:03:52;73300.94;;;-140.58;100.00
17309;BME280;8772;42.804;23.426;2023-06-04T04:06:19;73300.94;;;-140.58;100.00
17309;BME280;8772;42.804;23.426;2023-06-04T04:08:46;73284.53;;;-140.58;100.00
17309;BME280;8772;42.804;23.426;2023-06-04T04:11:15;73294.78;;;-140.58;100.00
17309;BME280;8772;42.804;23.426;2023-06-04T04:13:44;73280.44;;;-140.58;100.00
17309;BME280;8772;42.804;23.426;2023-06-04T04:16:12;73284.53;;;-140.58;100.00
17309;BME280;8772;42.804;23.426;2023-06-04T04:18:41;73272.22;;;-140.58;100.00
17309;BME280;8772;42.804;23.426;2023-06-04T04:21:08;73303.00;;;-140.58;100.00
17309;BME280;8772;42.804;23.426;2023-06-04T04:23:38;73313.25;;;-140.58;100.00
17309;BME280;8772;42.804;23.426;2023-06-04T04:26:05;73309.13;;;-140.58;100.00
17309;BME280;8772;42.804;23.426;2023-06-04T04:28:32;73292.72;;;-140.58;100.00
17309;BME280;8772;42.804;23.426;2023-06-04T04:31:00;73284.53;;;-140.58;100.00
17309;BME280;8772;42.804;23.426;2023-06-04T04:33:30;73282.47;;;-140.58;100.00
17309;BME280;8772;42.804;23.426;2023-06-04T04:36:02;73280.44;;;-140.58;100.00
17309;BME280;8772;42.804;23.426;2023-06-04T04:38:29;73270.16;;;-140.58;100.00
17309;BME280;8772;42.804;23.426;2023-06-04T04:40:59;73282.47;;;-140.58;100.00
17309;BME280;8772;42.804;23.426;2023-06-04T04:43:30;73280.44;;;-140.58;100.00
17309;BME280;8772;42.804;23.426;2023-06-04T04:45:58;73286.56;;;-140.58;100.00
17309;BME280;8772;42.804;23.426;2023-06-04T04:48:25;73276.31;;;-140.58;100.00
17309;BME280;8772;42.804;23.426;2023-06-04T04:50:53;73268.13;;;-140.58;100.00
17309;BME280;8772;42.804;23.426;2023-06-04T04:53:20;73272.22;;;-140.58;100.00
17309;BME280;8772;42.804;23.426;2023-06-04T04:55:47;73272.22;;;-140.58;100.00
17309;BME280;8772;42.804;23.426;2023-06-04T04:58:14;73270.16;;;-140.58;100.00
17309;BME280;8772;42.804;23.426;2023-06-04T05:00:41;73272.22;;;-140.58;100.00
17309;BME280;8772;42.804;23.426;2023-06-04T05:03:08;73272.22;;;-140.58;100.00
17309;BME280;8772;42.804;23.426;2023-06-04T05:05:35;73259.91;;;-140.58;100.00
17309;BME280;8772;42.804;23.426;2023-06-04T05:08:04;73251.72;;;-140.58;100.00
17309;BME280;8772;42.804;23.426;2023-06-04T05:10:31;73247.59;;;-140.58;100.00
17309;BME280;8772;42.804;23.426;2023-06-04T05:12:59;73255.81;;;-140.58;100.00
17309;BME280;8772;42.804;23.426;2023-06-04T05:15:26;73243.50;;;-140.58;100.00
17309;BME280;8772;42.804;23.426;2023-06-04T05:17:53;73235.31;;;-140.58;100.00
17309;BME280;8772;42.804;23.426;2023-06-04T05:20:21;73251.72;;;-140.58;100.00
17309;BME280;8772;42.804;23.426;2023-06-04T05:22:48;73239.41;;;-140.58;100.00
17309;BME280;8772;42.804;23.426;2023-06-04T05:25:17;73251.72;;;-140.58;100.00
17309;BME280;8772;42.804;23.426;2023-06-04T05:27:44;73233.25;;;-140.58;100.00
17309;BME280;8772;42.804;23.426;2023-06-04T05:30:12;73225.03;;;-140.58;100.00
17309;BME280;8772;42.804;23.426;2023-06-04T05:32:39;73220.94;;;-140.58;100.00
17309;BME280;8772;42.804;23.426;2023-06-04T05:35:07;73214.78;;;-140.58;100.00
17309;BME280;8772;42.804;23.426;2023-06-04T05:37:35;73220.94;;;-140.58;100.00
17309;BME280;8772;42.804;23.426;2023-06-04T05:40:04;73223.00;;;-140.58;100.00
17309;BME280;8772;42.804;23.426;2023-06-04T05:42:34;73229.16;;;-140.58;100.00
17309;BME280;8772;42.804;23.426;2023-06-04T05:45:01;73231.19;;;-140.58;100.00
17309;BME280;8772;42.804;23.426;2023-06-04T05:47:28;73239.41;;;-140.58;100.00
17309;BME280;8772;42.804;23.426;2023-06-04T05:49:55;73241.47;;;-140.58;100.00
17309;BME280;8772;42.804;23.426;2023-06-04T05:52:22;73227.09;;;-140.58;100.00
17309;BME280;8772;42.804;23.426;2023-06-04T05:54:49;73214.78;;;-140.58;100.00
17309;BME280;8772;42.804;23.426;2023-06-04T05:57:16;73214.78;;;-140.58;100.00
17309;BME280;8772;42.804;23.426;2023-06-04T05:59:44;73218.91;;;-140.58;100.00
17309;BME280;8772;42.804;23.426;2023-06-04T06:02:11;73212.75;;;-140.58;100.00
17309;BME280;8772;42.804;23.426;2023-06-04T06:04:40;73216.84;;;-140.58;100.00
17309;BME280;8772;42.804;23.426;2023-06-04T06:07:06;73212.75;;;-140.58;100.00
17309;BME280;8772;42.804;23.426;2023-06-04T06:09:33;73212.75;;;-140.58;100.00
17309;BME280;8772;42.804;23.426;2023-06-04T06:12:01;73206.59;;;-140.58;100.00
17309;BME280;8772;42.804;23.426;2023-06-04T06:14:28;73223.00;;;-140.58;100.00
17309;BME280;8772;42.804;23.426;2023-06-04T06:16:56;73206.59;;;-140.58;100.00
17309;BME280;8772;42.804;23.426;2023-06-04T06:19:23;73214.78;;;-140.58;100.00
17309;BME280;8772;42.804;23.426;2023-06-04T06:21:51;73202.47;;;-140.58;100.00
17309;BME280;8772;42.804;23.426;2023-06-04T06:24:18;73184.03;;;-140.58;100.00
17309;BME280;8772;42.804;23.426;2023-06-04T06:26:45;73171.72;;;-140.58;100.00
17309;BME280;8772;42.804;23.426;2023-06-04T06:29:12;73169.66;;;-140.58;100.00
17309;BME280;8772;42.804;23.426;2023-06-04T06:31:39;73165.56;;;-140.58;100.00
17309;BME280;8772;42.804;23.426;2023-06-04T06:34:07;73157.34;;;-140.58;100.00
17309;BME280;8772;42.804;23.426;2023-06-04T06:36:35;73145.06;;;-140.58;100.00
17309;BME280;8772;42.804;23.426;2023-06-04T06:39:02;73132.75;;;-140.58;100.00
17309;BME280;8772;42.804;23.426;2023-06-04T06:41:28;73124.53;;;-140.58;100.00
17309;BME280;8772;42.804;23.426;2023-06-04T06:43:56;73116.34;;;-140.58;100.00
17309;BME280;8772;42.804;23.426;2023-06-04T06:46:23;73095.81;;;-140.58;100.00
17309;BME280;8772;42.804;23.426;2023-06-04T06:48:50;73116.34;;;-140.58;100.00
17309;BME280;8772;42.804;23.426;2023-06-04T06:51:18;73095.81;;;-140.58;100.00
17309;BME280;8772;42.804;23.426;2023-06-04T06:53:45;73091.72;;;-140.58;100.00
17309;BME280;8772;42.804;23.426;2023-06-04T06:56:14;73081.47;;;-140.58;100.00
17309;BME280;8772;42.804;23.426;2023-06-04T06:58:41;73056.84;;;-140.58;100.00
17309;BME280;8772;42.804;23.426;2023-06-04T07:01:07;73046.59;;;-140.58;100.00
17309;BME280;8772;42.804;23.426;2023-06-04T07:03:34;73030.19;;;-140.58;100.00
17309;BME280;8772;42.804;23.426;2023-06-04T07:06:01;73005.59;;;-140.58;100.00
17309;BME280;8772;42.804;23.426;2023-06-04T07:08:29;72980.97;;;-140.58;100.00
17309;BME280;8772;42.804;23.426;2023-06-04T07:10:56;72968.66;;;-140.58;100.00
17309;BME280;8772;42.804;23.426;2023-06-04T07:13:23;72942.00;;;-140.58;100.00
17309;BME280;8772;42.804;23.426;2023-06-04T07:15:50;72923.56;;;-140.58;100.00
17309;BME280;8772;42.804;23.426;2023-06-04T07:18:17;72913.28;;;-140.58;100.00
17309;BME280;8772;42.804;23.426;2023-06-04T07:20:44;72903.03;;;-140.58;100.00
17309;BME280;8772;42.804;23.426;2023-06-04T07:23:11;72880.47;;;-140.58;100.00
17309;BME280;8772;42.804;23.426;2023-06-04T07:25:39;72878.44;;;-140.58;92.53
17309;BME280;8772;42.804;23.426;2023-06-04T07:28:06;72882.53;;;-140.58;91.91
17309;BME280;8772;42.804;23.426;2023-06-04T07:30:33;72862.03;;;-140.58;94.77
17309;BME280;8772;42.804;23.426;2023-06-04T07:33:01;72845.63;;;-140.58;96.92
17309;BME280;8772;42.804;23.426;2023-06-04T07:35:28;72862.03;;;-140.58;88.24
17309;BME280;8772;42.804;23.426;2023-06-04T07:37:55;72833.31;;;-140.58;90.94
17309;BME280;8772;42.804;23.426;2023-06-04T07:40:22;72845.63;;;-140.58;91.26
17309;BME280;8772;42.804;23.426;2023-06-04T07:42:50;72829.22;;;-140.58;89.64
17309;BME280;8772;42.804;23.426;2023-06-04T07:45:17;72839.47;;;-140.58;85.54
17309;BME280;8772;42.804;23.426;2023-06-04T07:47:44;72843.56;;;-140.58;85.26
17309;BME280;8772;42.804;23.426;2023-06-04T07:50:11;72878.44;;;-140.58;87.19
17309;BME280;8772;42.804;23.426;2023-06-04T07:52:38;72833.31;;;-140.58;90.52
17309;BME280;8772;42.804;23.426;2023-06-04T07:55:05;72853.81;;;-140.58;85.63
17309;BME280;8772;42.804;23.426;2023-06-04T07:57:33;72862.03;;;-140.58;87.56
17309;BME280;8772;42.804;23.426;2023-06-04T08:00:03;72872.28;;;-140.58;84.62
17309;BME280;8772;42.804;23.426;2023-06-04T08:02:31;72857.91;;;-140.58;88.24
17309;BME280;8772;42.804;23.426;2023-06-04T08:04:58;72851.75;;;-140.58;82.52
17309;BME280;8772;42.804;23.426;2023-06-04T08:07:24;72845.63;;;-140.58;79.04
17309;BME280;8772;42.804;23.426;2023-06-04T08:09:52;72833.31;;;-140.58;83.81
17309;BME280;8772;42.804;23.426;2023-06-04T08:12:21;72788.19;;;-140.58;84.34
17309;BME280;8772;42.804;23.426;2023-06-04T08:14:48;72780.00;;;-140.58;81.06
17309;BME280;8772;42.804;23.426;2023-06-04T08:17:17;72784.09;;;-140.58;76.22
17309;BME280;8772;42.804;23.426;2023-06-04T08:19:43;72792.28;;;-140.58;74.52
17309;BME280;8772;42.804;23.426;2023-06-04T08:22:10;72792.28;;;-140.58;77.76
17309;BME280;8772;42.804;23.426;2023-06-04T08:24:37;72775.88;;;-140.58;78.10
17309;BME280;8772;42.804;23.426;2023-06-04T08:27:04;72796.41;;;-140.58;73.58
17309;BME280;8772;42.804;23.426;2023-06-04T08:29:33;72775.88;;;-140.58;74.89
17309;BME280;8772;42.804;23.426;2023-06-04T08:32:00;72743.06;;;-140.58;72.76
17309;BME280;8772;42.804;23.426;2023-06-04T08:34:29;72786.13;;;-140.58;70.74
17309;BME280;8772;42.804;23.426;2023-06-04T08:36:56;72792.28;;;-140.58;73.91
17309;BME280;8772;42.804;23.426;2023-06-04T08:39:23;72769.72;;;-140.58;75.25
17309;BME280;8772;42.804;23.426;2023-06-04T08:41:52;72784.09;;;-140.58;73.90
17309;BME280;8772;42.804;23.426;2023-06-04T08:44:19;72763.59;;;-140.58;72.94
17309;BME280;8772;42.804;23.426;2023-06-04T08:46:50;72771.78;;;-140.58;73.21
17309;BME280;8772;42.804;23.426;2023-06-04T08:49:19;72800.50;;;-140.58;71.84
17309;BME280;8772;42.804;23.426;2023-06-04T08:51:48;72786.13;;;-140.58;72.47
17309;BME280;8772;42.804;23.426;2023-06-04T08:54:15;72763.59;;;-140.58;74.41
17309;BME280;8772;42.804;23.426;2023-06-04T08:56:42;72800.50;;;-140.58;72.73
17309;BME280;8772;42.804;23.426;2023-06-04T08:59:10;72773.84;;;-140.58;73.49
17309;BME280;8772;42.804;23.426;2023-06-04T09:01:37;72782.03;;;-140.58;75.48
17309;BME280;8772;42.804;23.426;2023-06-04T09:04:05;72771.78;;;-140.58;75.00
17309;BME280;8772;42.804;23.426;2023-06-04T09:06:33;72786.13;;;-140.58;70.30
17309;BME280;8772;42.804;23.426;2023-06-04T09:09:03;72775.88;;;-140.58;71.65
17309;BME280;8772;42.804;23.426;2023-06-04T09:11:35;72738.97;;;-140.58;74.60
17309;BME280;8772;42.804;23.426;2023-06-04T09:14:06;72738.97;;;-140.58;71.12
17309;BME280;8772;42.804;23.426;2023-06-04T09:16:42;72745.13;;;-140.58;70.48
17309;BME280;8772;42.804;23.426;2023-06-04T09:19:09;72771.78;;;-140.58;68.29
17309;BME280;8772;42.804;23.426;2023-06-04T09:21:46;72771.78;;;-140.58;67.92
17309;BME280;8772;42.804;23.426;2023-06-04T09:24:15;72755.38;;;-140.58;68.06
17309;BME280;8772;42.804;23.426;2023-06-04T09:26:42;72749.22;;;-140.58;69.92
17309;BME280;8772;42.804;23.426;2023-06-04T09:29:09;72743.06;;;-140.58;67.80
17309;BME280;8772;42.804;23.426;2023-06-04T09:31:36;72759.47;;;-140.58;65.10
17309;BME280;8772;42.804;23.426;2023-06-04T09:34:05;72771.78;;;-140.58;67.11
17309;BME280;8772;42.804;23.426;2023-06-04T09:36:33;72738.97;;;-140.58;68.87
17309;BME280;8772;42.804;23.426;2023-06-04T09:39:00;72714.34;;;-140.58;70.54
17309;BME280;8772;42.804;23.426;2023-06-04T09:41:29;72706.16;;;-140.58;68.49
17309;BME280;8772;42.804;23.426;2023-06-04T09:44:00;72675.41;;;-140.58;69.25
17309;BME280;8772;42.804;23.426;2023-06-04T09:46:28;72652.84;;;-140.58;69.03
17309;BME280;8772;42.804;23.426;2023-06-04T09:49:00;72656.94;;;-140.58;68.93
17309;BME280;8772;42.804;23.426;2023-06-04T09:51:28;72646.69;;;-140.58;66.94
17309;BME280;8772;42.804;23.426;2023-06-04T09:53:55;72632.34;;;-140.58;66.11
17309;BME280;8772;42.804;23.426;2023-06-04T09:56:22;72609.78;;;-140.58;65.46
17309;BME280;8772;42.804;23.426;2023-06-04T09:58:54;72579.00;;;-140.58;65.50
17309;BME280;8772;42.804;23.426;2023-06-04T10:01:22;72620.03;;;-140.58;63.51
17309;BME280;8772;42.804;23.426;2023-06-04T10:03:51;72638.47;;;-140.58;64.50
17309;BME280;8772;42.804;23.426;2023-06-04T10:06:19;72605.66;;;-140.58;64.76
17309;BME280;8772;42.804;23.426;2023-06-04T10:08:48;72611.81;;;-140.58;65.86
17309;BME280;8772;42.804;23.426;2023-06-04T10:11:17;72583.13;;;-140.58;65.83
17309;BME280;8772;42.804;23.426;2023-06-04T10:13:53;72587.22;;;-140.58;61.64
17309;BME280;8772;42.804;23.426;2023-06-04T10:16:24;72574.91;;;-140.58;65.54
17309;BME280;8772;42.804;23.426;2023-06-04T10:18:53;72583.13;;;-140.58;61.06
17309;BME280;8772;42.804;23.426;2023-06-04T10:21:22;72595.41;;;-140.58;59.92
17309;BME280;8772;42.804;23.426;2023-06-04T10:23:50;72579.00;;;-140.58;60.54
17309;BME280;8772;42.804;23.426;2023-06-04T10:26:18;72656.94;;;-140.58;60.98
17309;BME280;8772;42.804;23.426;2023-06-04T10:28:47;72654.88;;;-140.58;63.10
17309;BME280;8772;42.804;23.426;2023-06-04T10:31:20;72628.22;;;-140.58;61.37
17309;BME280;8772;42.804;23.426;2023-06-04T10:33:48;72587.22;;;-140.58;64.22
17309;BME280;8772;42.804;23.426;2023-06-04T10:36:20;72599.53;;;-140.58;61.34
17309;BME280;8772;42.804;23.426;2023-06-04T10:38:48;72620.03;;;-140.58;58.78
17309;BME280;8772;42.804;23.426;2023-06-04T10:41:17;72644.63;;;-140.58;62.10
17309;BME280;8772;42.804;23.426;2023-06-04T10:43:45;72615.94;;;-140.58;64.88
17309;BME280;8772;42.804;23.426;2023-06-04T10:46:17;72595.41;;;-140.58;59.72
17309;BME280;8772;42.804;23.426;2023-06-04T10:48:52;72595.41;;;-140.58;62.66
17309;BME280;8772;42.804;23.426;2023-06-04T10:51:29;72622.06;;;-140.58;61.16
17309;BME280;8772;42.804;23.426;2023-06-04T10:53:57;72646.69;;;-140.58;59.97
17309;BME280;8772;42.804;23.426;2023-06-04T10:56:25;72609.78;;;-140.58;61.64
17309;BME280;8772;42.804;23.426;2023-06-04T10:58:54;72595.41;;;-140.58;63.80
17309;BME280;8772;42.804;23.426;2023-06-04T11:01:26;72538.00;;;-140.58;65.85
17309;BME280;8772;42.804;23.426;2023-06-04T11:03:54;72496.97;;;-140.58;60.66
17309;BME280;8772;42.804;23.426;2023-06-04T11:06:21;72490.84;;;-140.58;58.87
17309;BME280;8772;42.804;23.426;2023-06-04T11:09:01;72447.78;;;-140.58;60.41
17309;BME280;8772;42.804;23.426;2023-06-04T11:11:33;72390.34;;;-140.58;56.61
17309;BME280;8772;42.804;23.426;2023-06-04T11:14:09;72378.03;;;-140.58;56.39
17309;BME280;8772;42.804;23.426;2023-06-04T11:16:54;72332.94;;;-140.58;56.51
17309;BME280;8772;42.804;23.426;2023-06-04T11:19:48;72343.19;;;-140.58;51.47
17309;BME280;8772;42.804;23.426;2023-06-04T11:26:10;72279.63;;;-140.58;56.83
17309;BME280;8772;42.804;23.426;2023-06-04T11:28:37;72298.06;;;-140.58;53.16
17309;BME280;8772;42.804;23.426;2023-06-04T11:31:05;72341.13;;;-140.58;49.34
17309;BME280;8772;42.804;23.426;2023-06-04T11:33:43;72478.53;;;-140.58;54.32
17309;BME280;8772;42.804;23.426;2023-06-04T11:36:10;72441.63;;;-140.58;57.04
17309;BME280;8772;42.804;23.426;2023-06-04T11:38:37;72439.56;;;-140.58;56.36
17309;BME280;8772;42.804;23.426;2023-06-04T11:41:04;72480.59;;;-140.58;56.84
17309;BME280;8772;42.804;23.426;2023-06-04T11:43:32;72513.38;;;-140.58;57.19
17309;BME280;8772;42.804;23.426;2023-06-04T11:46:05;72538.00;;;-140.58;56.86
17309;BME280;8772;42.804;23.426;2023-06-04T11:48:32;72566.72;;;-140.58;56.50
17309;BME280;8772;42.804;23.426;2023-06-04T11:51:05;72589.25;;;-140.58;57.63
17309;BME280;8772;42.804;23.426;2023-06-04T11:53:33;72562.59;;;-140.58;59.26
17309;BME280;8772;42.804;23.426;2023-06-04T11:56:00;72566.72;;;-140.58;59.92
17309;BME280;8772;42.804;23.426;2023-06-04T11:58:28;72562.59;;;-140.58;57.47
17309;BME280;8772;42.804;23.426;2023-06-04T12:00:55;72579.00;;;-140.58;58.08
17309;BME280;8772;42.804;23.426;2023-06-04T12:03:35;72589.25;;;-140.58;58.63
17309;BME280;8772;42.804;23.426;2023-06-04T12:06:15;72579.00;;;-140.58;60.05
17309;BME280;8772;42.804;23.426;2023-06-04T12:08:49;72579.00;;;-140.58;58.93
17309;BME280;8772;42.804;23.426;2023-06-04T12:11:28;72566.72;;;-140.58;58.63
17309;BME280;8772;42.804;23.426;2023-06-04T12:13:57;72538.00;;;-140.58;60.03
17309;BME280;8772;42.804;23.426;2023-06-04T12:16:24;72501.09;;;-140.58;61.82
17309;BME280;8772;42.804;23.426;2023-06-04T12:18:51;72470.31;;;-140.58;58.87
17309;BME280;8772;42.804;23.426;2023-06-04T12:21:23;72488.78;;;-140.58;58.54
17309;BME280;8772;42.804;23.426;2023-06-04T12:23:53;72517.50;;;-140.58;58.70
17309;BME280;8772;42.804;23.426;2023-06-04T12:26:22;72513.38;;;-140.58;56.72
17309;BME280;8772;42.804;23.426;2023-06-04T12:29:01;72550.31;;;-140.58;55.62
17309;BME280;8772;42.804;23.426;2023-06-04T12:31:29;72566.72;;;-140.58;56.90
17309;BME280;8772;42.804;23.426;2023-06-04T12:34:01;72548.25;;;-140.58;58.29
17309;BME280;8772;42.804;23.426;2023-06-04T12:36:29;72554.41;;;-140.58;57.93
17309;BME280;8772;42.804;23.426;2023-06-04T12:38:59;72546.19;;;-140.58;60.46
17309;BME280;8772;42.804;23.426;2023-06-04T12:41:27;72509.28;;;-140.58;57.66
17309;BME280;8772;42.804;23.426;2023-06-04T12:43:54;72488.78;;;-140.58;57.48